sensor_id;sensor_type;location;lat;lon;timestamp;pressure;altitude;pressure_sealevel;temperature;humidity
55418;BME280;41287;47.554;7.844;2023-11-18T00:00:15;98948.22;;;17.48;63.53
55418;BME280;41287;47.554;7.844;2023-11-18T00:02:44;98944.44;;;17.49;63.53
55418;BME280;41287;47.554;7.844;2023-11-18T00:05:10;98942.81;;;17.48;63.42
55418;BME280;41287;47.554;7.844;2023-11-18T00:07:36;98938.19;;;17.48;63.50
55418;BME280;41287;47.554;7.844;2023-11-18T00:10:01;98942.81;;;17.48;63.37
55418;BME280;41287;47.554;7.844;2023-11-18T00:12:29;98940.09;;;17.48;63.61
55418;BME280;41287;47.554;7.844;2023-11-18T00:14:54;98940.09;;;17.48;63.63
55418;BME280;41287;47.554;7.844;2023-11-18T00:17:20;98930.41;;;17.47;63.46
55418;BME280;41287;47.554;7.844;2023-11-18T00:19:46;98935.50;;;17.48;63.48
55418;BME280;41287;47.554;7.844;2023-11-18T00:22:11;98923.84;;;17.48;63.36
55418;BME280;41287;47.554;7.844;2023-11-18T00:24:37;98928.47;;;17.47;63.58
55418;BME280;41287;47.554;7.844;2023-11-18T00:27:03;98936.59;;;17.47;63.42
55418;BME280;41287;47.554;7.844;2023-11-18T00:29:33;98935.81;;;17.47;63.50
55418;BME280;41287;47.554;7.844;2023-11-18T00:31:59;98942.00;;;17.47;63.50
55418;BME280;41287;47.554;7.844;2023-11-18T00:34:24;98942.81;;;17.48;63.37
55418;BME280;41287;47.554;7.844;2023-11-18T00:36:49;98933.88;;;17.47;63.62
55418;BME280;41287;47.554;7.844;2023-11-18T00:39:15;98937.41;;;17.48;63.49
55418;BME280;41287;47.554;7.844;2023-11-18T00:41:42;98935.81;;;17.47;63.47
55418;BME280;41287;47.554;7.844;2023-11-18T00:44:07;98927.69;;;17.47;63.64
55418;BME280;41287;47.554;7.844;2023-11-18T00:46:33;98930.41;;;17.47;63.51
55418;BME280;41287;47.554;7.844;2023-11-18T00:49:01;98922.28;;;17.47;63.45
55418;BME280;41287;47.554;7.844;2023-11-18T00:51:26;98928.47;;;17.47;63.37
55418;BME280;41287;47.554;7.844;2023-11-18T00:53:54;98930.41;;;17.47;63.43
55418;BME280;41287;47.554;7.844;2023-11-18T00:56:21;98926.09;;;17.46;63.58
55418;BME280;41287;47.554;7.844;2023-11-18T00:58:47;98937.41;;;17.48;63.46
55418;BME280;41287;47.554;7.844;2023-11-18T01:01:13;98933.13;;;17.47;63.41
55418;BME280;41287;47.554;7.844;2023-11-18T01:03:38;98942.00;;;17.47;63.38
55418;BME280;41287;47.554;7.844;2023-11-18T01:06:04;98931.97;;;17.48;63.52
55418;BME280;41287;47.554;7.844;2023-11-18T01:08:31;98935.50;;;17.48;63.59
55418;BME280;41287;47.554;7.844;2023-11-18T01:10:57;98932.78;;;17.48;63.50
55418;BME280;41287;47.554;7.844;2023-11-18T01:13:22;98938.53;;;17.47;63.40
55418;BME280;41287;47.554;7.844;2023-11-18T01:15:48;98927.69;;;17.47;63.50
55418;BME280;41287;47.554;7.844;2023-11-18T01:18:14;98929.59;;;17.46;63.61
55418;BME280;41287;47.554;7.844;2023-11-18T01:20:40;98926.88;;;17.46;63.27
55418;BME280;41287;47.554;7.844;2023-11-18T01:23:05;98924.19;;;17.46;63.60
55418;BME280;41287;47.554;7.844;2023-11-18T01:25:32;98931.19;;;17.47;63.38
55418;BME280;41287;47.554;7.844;2023-11-18T01:28:00;98930.41;;;17.47;63.39
55418;BME280;41287;47.554;7.844;2023-11-18T01:30:25;98937.72;;;17.46;63.51
55418;BME280;41287;47.554;7.844;2023-11-18T01:32:52;98941.25;;;17.47;63.71
55418;BME280;41287;47.554;7.844;2023-11-18T01:35:17;98942.34;;;17.46;63.34
55418;BME280;41287;47.554;7.844;2023-11-18T01:37:43;98942.00;;;17.47;63.42
55418;BME280;41287;47.554;7.844;2023-11-18T01:40:09;98934.69;;;17.48;63.45
55418;BME280;41287;47.554;7.844;2023-11-18T01:42:38;98935.81;;;17.47;63.51
55418;BME280;41287;47.554;7.844;2023-11-18T01:45:04;98941.25;;;17.47;63.49
55418;BME280;41287;47.554;7.844;2023-11-18T01:47:32;98935.03;;;17.46;63.55
55418;BME280;41287;47.554;7.844;2023-11-18T01:49:59;98940.44;;;17.46;63.55
55418;BME280;41287;47.554;7.844;2023-11-18T01:52:27;98947.75;;;17.46;63.33
55418;BME280;41287;47.554;7.844;2023-11-18T01:54:55;98952.84;;;17.47;63.38
55418;BME280;41287;47.554;7.844;2023-11-18T01:57:24;98942.00;;;17.47;63.37
55418;BME280;41287;47.554;7.844;2023-11-18T01:59:54;98945.06;;;17.46;63.32
55418;BME280;41287;47.554;7.844;2023-11-18T02:04:56;98943.44;;;17.45;63.45
55418;BME280;41287;47.554;7.844;2023-11-18T02:07:23;98947.75;;;17.46;63.62
55418;BME280;41287;47.554;7.844;2023-11-18T02:09:49;98947.44;;;17.47;63.33
55418;BME280;41287;47.554;7.844;2023-11-18T02:12:24;98934.50;;;17.44;63.36
55418;BME280;41287;47.554;7.844;2023-11-18T02:14:53;98935.81;;;17.47;63.56
55418;BME280;41287;47.554;7.844;2023-11-18T02:17:21;98922.56;;;17.45;63.44
55418;BME280;41287;47.554;7.844;2023-11-18T02:19:51;98926.09;;;17.46;63.53
55418;BME280;41287;47.554;7.844;2023-11-18T02:22:17;98923.38;;;17.46;63.35
55418;BME280;41287;47.554;7.844;2023-11-18T02:24:43;98920.66;;;17.46;63.32
55418;BME280;41287;47.554;7.844;2023-11-18T02:27:08;98913.63;;;17.45;63.59
55418;BME280;41287;47.554;7.844;2023-11-18T02:29:42;98921.47;;;17.46;63.48
55418;BME280;41287;47.554;7.844;2023-11-18T02:32:29;98935.63;;;17.43;63.51
55418;BME280;41287;47.554;7.844;2023-11-18T02:37:44;98945.34;;;17.44;63.49
55418;BME280;41287;47.554;7.844;2023-11-18T02:40:12;98946.97;;;17.45;63.47
55418;BME280;41287;47.554;7.844;2023-11-18T02:42:42;98936.13;;;17.45;63.47
55418;BME280;41287;47.554;7.844;2023-11-18T02:45:09;98939.63;;;17.46;63.50
55418;BME280;41287;47.554;7.844;2023-11-18T02:47:37;98929.09;;;17.44;63.56
55418;BME280;41287;47.554;7.844;2023-11-18T02:50:03;98934.22;;;17.46;63.38
55418;BME280;41287;47.554;7.844;2023-11-18T02:52:37;98919.88;;;17.45;63.48
55418;BME280;41287;47.554;7.844;2023-11-18T02:55:05;98913.63;;;17.45;63.47
55418;BME280;41287;47.554;7.844;2023-11-18T02:57:38;98911.75;;;17.45;63.43
55418;BME280;41287;47.554;7.844;2023-11-18T03:00:04;98895.47;;;17.45;63.54
55418;BME280;41287;47.554;7.844;2023-11-18T03:02:30;98893.88;;;17.44;63.27
55418;BME280;41287;47.554;7.844;2023-11-18T03:04:59;98905.50;;;17.45;63.45
55418;BME280;41287;47.554;7.844;2023-11-18T03:07:25;98912.53;;;17.46;63.46
55418;BME280;41287;47.554;7.844;2023-11-18T03:09:52;98919.06;;;17.45;63.45
55418;BME280;41287;47.554;7.844;2023-11-18T03:12:18;98916.34;;;17.45;63.37
55418;BME280;41287;47.554;7.844;2023-11-18T03:14:43;98921.78;;;17.45;63.64
55418;BME280;41287;47.554;7.844;2023-11-18T03:17:08;98925.28;;;17.45;63.33
55418;BME280;41287;47.554;7.844;2023-11-18T03:19:35;98932.59;;;17.45;63.42
55418;BME280;41287;47.554;7.844;2023-11-18T03:22:01;98923.38;;;17.46;63.41
55418;BME280;41287;47.554;7.844;2023-11-18T03:24:27;98927.19;;;17.45;63.43
55418;BME280;41287;47.554;7.844;2023-11-18T03:26:54;98919.88;;;17.45;63.49
55418;BME280;41287;47.554;7.844;2023-11-18T03:29:20;98908.22;;;17.45;63.36
55418;BME280;41287;47.554;7.844;2023-11-18T03:31:45;98916.34;;;17.45;63.41
55418;BME280;41287;47.554;7.844;2023-11-18T03:34:13;98912.03;;;17.44;63.35
55418;BME280;41287;47.554;7.844;2023-11-18T03:36:39;98912.03;;;17.44;63.44
55418;BME280;41287;47.554;7.844;2023-11-18T03:39:04;98918.25;;;17.44;63.48
55418;BME280;41287;47.554;7.844;2023-11-18T03:41:31;98924.47;;;17.45;63.42
55418;BME280;41287;47.554;7.844;2023-11-18T03:43:56;98923.69;;;17.44;63.54
55418;BME280;41287;47.554;7.844;2023-11-18T03:46:22;98933.41;;;17.45;63.38
55418;BME280;41287;47.554;7.844;2023-11-18T03:48:48;98931.00;;;17.44;63.35
55418;BME280;41287;47.554;7.844;2023-11-18T03:51:13;98928.28;;;17.44;63.42
55418;BME280;41287;47.554;7.844;2023-11-18T03:53:42;98928.28;;;17.44;63.43
55418;BME280;41287;47.554;7.844;2023-11-18T03:56:07;98929.09;;;17.44;63.45
55418;BME280;41287;47.554;7.844;2023-11-18T03:58:33;98926.38;;;17.44;63.36
55418;BME280;41287;47.554;7.844;2023-11-18T04:01:00;98931.81;;;17.44;63.41
55418;BME280;41287;47.554;7.844;2023-11-18T04:03:26;98930.19;;;17.43;63.49
55418;BME280;41287;47.554;7.844;2023-11-18T04:05:54;98928.28;;;17.44;63.38
55418;BME280;41287;47.554;7.844;2023-11-18T04:08:19;98922.88;;;17.44;63.35
55418;BME280;41287;47.554;7.844;2023-11-18T04:10:46;98929.91;;;17.45;63.36
55418;BME280;41287;47.554;7.844;2023-11-18T04:13:11;98924.78;;;17.43;63.38
55418;BME280;41287;47.554;7.844;2023-11-18T04:15:37;98925.59;;;17.44;63.29
55418;BME280;41287;47.554;7.844;2023-11-18T04:18:05;98930.19;;;17.43;63.42
55418;BME280;41287;47.554;7.844;2023-11-18T04:20:32;98929.09;;;17.44;63.42
55418;BME280;41287;47.554;7.844;2023-11-18T04:22:57;98933.72;;;17.44;63.41
55418;BME280;41287;47.554;7.844;2023-11-18T04:25:25;98933.72;;;17.44;63.35
55418;BME280;41287;47.554;7.844;2023-11-18T04:27:51;98922.88;;;17.44;63.42
55418;BME280;41287;47.554;7.844;2023-11-18T04:30:16;98926.38;;;17.44;63.47
55418;BME280;41287;47.554;7.844;2023-11-18T04:32:42;98928.28;;;17.44;63.26
55418;BME280;41287;47.554;7.844;2023-11-18T04:35:08;98935.63;;;17.43;63.37
55418;BME280;41287;47.554;7.844;2023-11-18T04:37:35;98943.44;;;17.45;63.40
55418;BME280;41287;47.554;7.844;2023-11-18T04:40:01;98935.63;;;17.43;63.50
55418;BME280;41287;47.554;7.844;2023-11-18T04:42:27;98938.31;;;17.43;63.50
55418;BME280;41287;47.554;7.844;2023-11-18T04:44:55;98939.13;;;17.44;63.37
55418;BME280;41287;47.554;7.844;2023-11-18T04:47:21;98927.47;;;17.43;63.26
55418;BME280;41287;47.554;7.844;2023-11-18T04:49:46;98922.06;;;17.43;63.44
55418;BME280;41287;47.554;7.844;2023-11-18T04:52:12;98913.94;;;17.43;63.42
55418;BME280;41287;47.554;7.844;2023-11-18T04:54:37;98918.56;;;17.43;63.51
55418;BME280;41287;47.554;7.844;2023-11-18T04:57:03;98912.34;;;17.42;63.30
55418;BME280;41287;47.554;7.844;2023-11-18T04:59:28;98907.72;;;17.43;63.45
55418;BME280;41287;47.554;7.844;2023-11-18T05:01:55;98912.03;;;17.44;63.43
55418;BME280;41287;47.554;7.844;2023-11-18T05:04:21;98904.22;;;17.42;63.36
55418;BME280;41287;47.554;7.844;2023-11-18T05:06:46;98908.53;;;17.43;63.36
55418;BME280;41287;47.554;7.844;2023-11-18T05:09:11;98907.72;;;17.43;63.51
55418;BME280;41287;47.554;7.844;2023-11-18T05:11:39;98912.34;;;17.42;63.52
55418;BME280;41287;47.554;7.844;2023-11-18T05:14:05;98907.72;;;17.43;63.51
55418;BME280;41287;47.554;7.844;2023-11-18T05:16:32;98899.59;;;17.43;63.39
55418;BME280;41287;47.554;7.844;2023-11-18T05:18:57;98898.50;;;17.44;63.40
55418;BME280;41287;47.554;7.844;2023-11-18T05:21:24;98894.16;;;17.43;63.37
55418;BME280;41287;47.554;7.844;2023-11-18T05:23:49;98887.16;;;17.42;63.34
55418;BME280;41287;47.554;7.844;2023-11-18T05:26:16;98887.94;;;17.42;63.38
55418;BME280;41287;47.554;7.844;2023-11-18T05:28:42;98875.50;;;17.41;63.30
55418;BME280;41287;47.554;7.844;2023-11-18T05:31:10;98874.41;;;17.42;63.52
55418;BME280;41287;47.554;7.844;2023-11-18T05:33:37;98879.03;;;17.42;63.38
55418;BME280;41287;47.554;7.844;2023-11-18T05:36:03;98881.72;;;17.42;63.50
55418;BME280;41287;47.554;7.844;2023-11-18T05:38:30;98887.94;;;17.42;63.49
55418;BME280;41287;47.554;7.844;2023-11-18T05:40:59;98889.84;;;17.42;63.38
55418;BME280;41287;47.554;7.844;2023-11-18T05:43:30;98881.72;;;17.42;63.42
55418;BME280;41287;47.554;7.844;2023-11-18T05:46:04;98883.63;;;17.41;63.51
55418;BME280;41287;47.554;7.844;2023-11-18T05:48:50;98886.03;;;17.43;63.41
55418;BME280;41287;47.554;7.844;2023-11-18T05:51:24;98890.66;;;17.42;63.44
55418;BME280;41287;47.554;7.844;2023-11-18T05:53:50;98895.28;;;17.42;63.43
55418;BME280;41287;47.554;7.844;2023-11-18T05:56:17;98881.72;;;17.42;63.45
55418;BME280;41287;47.554;7.844;2023-11-18T05:58:42;98884.44;;;17.42;63.36
55418;BME280;41287;47.554;7.844;2023-11-18T06:01:12;98885.25;;;17.42;63.41
55418;BME280;41287;47.554;7.844;2023-11-18T06:03:41;98877.41;;;17.41;63.47
55418;BME280;41287;47.554;7.844;2023-11-18T06:06:08;98886.34;;;17.41;63.40
55418;BME280;41287;47.554;7.844;2023-11-18T06:08:35;98874.41;;;17.42;63.44
55418;BME280;41287;47.554;7.844;2023-11-18T06:11:01;98867.38;;;17.41;63.36
55418;BME280;41287;47.554;7.844;2023-11-18T06:13:30;98861.97;;;17.41;63.28
55418;BME280;41287;47.554;7.844;2023-11-18T06:15:56;98866.56;;;17.41;63.36
55418;BME280;41287;47.554;7.844;2023-11-18T06:18:21;98875.50;;;17.41;63.50
55418;BME280;41287;47.554;7.844;2023-11-18T06:20:46;98878.22;;;17.41;63.52
55418;BME280;41287;47.554;7.844;2023-11-18T06:23:13;98871.19;;;17.40;63.29
55418;BME280;41287;47.554;7.844;2023-11-18T06:25:43;98880.94;;;17.41;63.40
55418;BME280;41287;47.554;7.844;2023-11-18T06:28:08;98881.72;;;17.42;63.22
55418;BME280;41287;47.554;7.844;2023-11-18T06:30:35;98882.03;;;17.40;63.48
55418;BME280;41287;47.554;7.844;2023-11-18T06:33:01;98882.84;;;17.41;63.44
55418;BME280;41287;47.554;7.844;2023-11-18T06:35:27;98890.16;;;17.40;63.40
55418;BME280;41287;47.554;7.844;2023-11-18T06:37:53;98895.56;;;17.40;63.28
55418;BME280;41287;47.554;7.844;2023-11-18T06:40:18;98895.56;;;17.40;63.33
55418;BME280;41287;47.554;7.844;2023-11-18T06:42:47;98890.16;;;17.40;63.39
55418;BME280;41287;47.554;7.844;2023-11-18T06:45:13;98884.75;;;17.40;63.53
55418;BME280;41287;47.554;7.844;2023-11-18T06:47:38;98886.66;;;17.40;63.24
55418;BME280;41287;47.554;7.844;2023-11-18T06:50:08;98883.97;;;17.40;63.47
55418;BME280;41287;47.554;7.844;2023-11-18T06:52:37;98882.03;;;17.40;63.52
55418;BME280;41287;47.554;7.844;2023-11-18T06:55:04;98888.25;;;17.41;63.33
55418;BME280;41287;47.554;7.844;2023-11-18T06:57:29;98889.38;;;17.40;63.24
55418;BME280;41287;47.554;7.844;2023-11-18T06:59:54;98885.53;;;17.41;63.39
55418;BME280;41287;47.554;7.844;2023-11-18T07:02:20;98890.16;;;17.40;63.45
55418;BME280;41287;47.554;7.844;2023-11-18T07:04:46;98883.16;;;17.39;63.38
55418;BME280;41287;47.554;7.844;2023-11-18T07:07:11;98883.97;;;17.40;63.45
55418;BME280;41287;47.554;7.844;2023-11-18T07:09:37;98892.09;;;17.40;63.15
55418;BME280;41287;47.554;7.844;2023-11-18T07:12:03;98895.56;;;17.40;63.32
55418;BME280;41287;47.554;7.844;2023-11-18T07:14:32;98901.00;;;17.40;63.45
55418;BME280;41287;47.554;7.844;2023-11-18T07:17:00;98902.13;;;17.39;63.32
55418;BME280;41287;47.554;7.844;2023-11-18T07:19:25;98885.88;;;17.39;63.34
55418;BME280;41287;47.554;7.844;2023-11-18T07:21:51;98895.56;;;17.40;63.47
55418;BME280;41287;47.554;7.844;2023-11-18T07:24:16;98901.78;;;17.41;63.37
55418;BME280;41287;47.554;7.844;2023-11-18T07:26:42;98907.53;;;17.39;63.24
55418;BME280;41287;47.554;7.844;2023-11-18T07:29:11;98921.09;;;17.39;63.24
55418;BME280;41287;47.554;7.844;2023-11-18T07:31:36;98915.66;;;17.39;63.35
55418;BME280;41287;47.554;7.844;2023-11-18T07:34:05;98930.31;;;17.38;63.51
55418;BME280;41287;47.554;7.844;2023-11-18T07:36:33;98925.38;;;17.40;63.20
55418;BME280;41287;47.554;7.844;2023-11-18T07:38:58;98921.91;;;17.40;63.21
55418;BME280;41287;47.554;7.844;2023-11-18T07:41:28;98913.75;;;17.40;63.37
55418;BME280;41287;47.554;7.844;2023-11-18T07:43:56;98901.00;;;17.40;63.30
55418;BME280;41287;47.554;7.844;2023-11-18T07:46:24;98902.94;;;17.40;63.17
55418;BME280;41287;47.554;7.844;2023-11-18T07:48:50;98894.00;;;17.39;63.35
55418;BME280;41287;47.554;7.844;2023-11-18T07:51:17;98891.28;;;17.39;63.31
55418;BME280;41287;47.554;7.844;2023-11-18T07:53:43;98899.41;;;17.39;63.53
55418;BME280;41287;47.554;7.844;2023-11-18T07:56:08;98895.09;;;17.38;63.46
55418;BME280;41287;47.554;7.844;2023-11-18T07:58:39;98902.13;;;17.39;63.30
55418;BME280;41287;47.554;7.844;2023-11-18T08:01:06;98909.44;;;17.38;63.39
55418;BME280;41287;47.554;7.844;2023-11-18T08:03:34;98897.81;;;17.38;63.33
55418;BME280;41287;47.554;7.844;2023-11-18T08:05:59;98905.94;;;17.38;63.37
55418;BME280;41287;47.554;7.844;2023-11-18T08:08:33;98905.94;;;17.38;63.35
55418;BME280;41287;47.554;7.844;2023-11-18T08:10:59;98903.22;;;17.38;63.33
55418;BME280;41287;47.554;7.844;2023-11-18T08:13:25;98906.75;;;17.38;63.31
55418;BME280;41287;47.554;7.844;2023-11-18T08:15:53;98898.59;;;17.38;63.41
55418;BME280;41287;47.554;7.844;2023-11-18T08:18:18;98895.91;;;17.38;63.17
55418;BME280;41287;47.554;7.844;2023-11-18T08:20:46;98893.19;;;17.38;63.26
55418;BME280;41287;47.554;7.844;2023-11-18T08:23:11;98881.56;;;17.38;63.26
55418;BME280;41287;47.554;7.844;2023-11-18T08:25:37;98870.72;;;17.38;63.18
55418;BME280;41287;47.554;7.844;2023-11-18T08:28:03;98853.66;;;17.37;63.43
55418;BME280;41287;47.554;7.844;2023-11-18T08:30:29;98853.66;;;17.37;63.45
55418;BME280;41287;47.554;7.844;2023-11-18T08:32:55;98856.38;;;17.37;63.33
55418;BME280;41287;47.554;7.844;2023-11-18T08:35:20;98848.25;;;17.37;63.22
55418;BME280;41287;47.554;7.844;2023-11-18T08:37:47;98857.19;;;17.38;63.27
55418;BME280;41287;47.554;7.844;2023-11-18T08:40:15;98859.06;;;17.37;63.35
55418;BME280;41287;47.554;7.844;2023-11-18T08:42:45;98857.19;;;17.38;63.17
55418;BME280;41287;47.554;7.844;2023-11-18T08:47:47;98856.38;;;17.37;63.27
55418;BME280;41287;47.554;7.844;2023-11-18T08:50:16;98850.94;;;17.37;63.09
55418;BME280;41287;47.554;7.844;2023-11-18T08:52:43;98851.75;;;17.38;63.40
55418;BME280;41287;47.554;7.844;2023-11-18T08:55:10;98844.72;;;17.37;63.46
55418;BME280;41287;47.554;7.844;2023-11-18T08:58:00;98848.25;;;17.37;63.25
55418;BME280;41287;47.554;7.844;2023-11-18T09:00:30;98848.53;;;17.36;63.32
55418;BME280;41287;47.554;7.844;2023-11-18T09:03:25;98843.94;;;17.36;63.33
55418;BME280;41287;47.554;7.844;2023-11-18T09:05:58;98845.84;;;17.36;63.32
55418;BME280;41287;47.554;7.844;2023-11-18T09:08:25;98849.34;;;17.36;63.35
55418;BME280;41287;47.554;7.844;2023-11-18T09:10:52;98852.84;;;17.37;63.32
55418;BME280;41287;47.554;7.844;2023-11-18T09:13:23;98851.25;;;17.36;63.19
55418;BME280;41287;47.554;7.844;2023-11-18T09:15:54;98845.84;;;17.36;63.29
55418;BME280;41287;47.554;7.844;2023-11-18T09:18:21;98843.13;;;17.36;63.40
55418;BME280;41287;47.554;7.844;2023-11-18T09:20:47;98833.09;;;17.36;63.30
55418;BME280;41287;47.554;7.844;2023-11-18T09:23:13;98834.19;;;17.35;63.28
55418;BME280;41287;47.554;7.844;2023-11-18T09:25:41;98842.31;;;17.35;63.33
55418;BME280;41287;47.554;7.844;2023-11-18T09:28:06;98841.53;;;17.35;63.41
55418;BME280;41287;47.554;7.844;2023-11-18T09:30:35;98853.16;;;17.35;63.27
55418;BME280;41287;47.554;7.844;2023-11-18T09:33:04;98851.25;;;17.36;63.23
55418;BME280;41287;47.554;7.844;2023-11-18T09:35:33;98859.38;;;17.36;63.29
55418;BME280;41287;47.554;7.844;2023-11-18T09:37:59;98862.88;;;17.36;63.39
55418;BME280;41287;47.554;7.844;2023-11-18T09:40:28;98874.03;;;17.35;63.23
55418;BME280;41287;47.554;7.844;2023-11-18T09:42:56;98877.53;;;17.35;63.23
55418;BME280;41287;47.554;7.844;2023-11-18T09:45:23;98881.06;;;17.36;63.35
55418;BME280;41287;47.554;7.844;2023-11-18T09:47:49;98874.03;;;17.35;63.29
55418;BME280;41287;47.554;7.844;2023-11-18T09:50:22;98861.28;;;17.35;63.30
55418;BME280;41287;47.554;7.844;2023-11-18T09:52:54;98869.41;;;17.35;63.14
55418;BME280;41287;47.554;7.844;2023-11-18T09:55:38;98861.91;;;17.32;63.47
55418;BME280;41287;47.554;7.844;2023-11-18T09:58:15;98872.41;;;17.34;63.32
55418;BME280;41287;47.554;7.844;2023-11-18T10:00:41;98875.94;;;17.34;63.26
55418;BME280;41287;47.554;7.844;2023-11-18T10:03:07;98878.63;;;17.34;63.31
55418;BME280;41287;47.554;7.844;2023-11-18T10:05:41;98870.50;;;17.34;63.21
55418;BME280;41287;47.554;7.844;2023-11-18T10:08:07;98872.13;;;17.35;63.30
55418;BME280;41287;47.554;7.844;2023-11-18T10:10:33;98874.81;;;17.35;63.27
55418;BME280;41287;47.554;7.844;2023-11-18T10:13:03;98881.34;;;17.34;63.23
55418;BME280;41287;47.554;7.844;2023-11-18T10:15:46;98874.03;;;17.35;63.28
55418;BME280;41287;47.554;7.844;2023-11-18T10:18:13;98870.50;;;17.34;63.28
55418;BME280;41287;47.554;7.844;2023-11-18T10:20:50;98862.38;;;17.34;63.47
55418;BME280;41287;47.554;7.844;2023-11-18T10:23:18;98862.38;;;17.34;63.21
55418;BME280;41287;47.554;7.844;2023-11-18T10:28:35;98854.09;;;17.31;63.24
55418;BME280;41287;47.554;7.844;2023-11-18T10:31:04;98848.84;;;17.34;63.15
55418;BME280;41287;47.554;7.844;2023-11-18T10:33:37;98852.19;;;17.31;63.34
55418;BME280;41287;47.554;7.844;2023-11-18T10:36:04;98853.47;;;17.34;63.29
55418;BME280;41287;47.554;7.844;2023-11-18T10:38:31;98858.06;;;17.33;63.31
55418;BME280;41287;47.554;7.844;2023-11-18T10:40:59;98856.16;;;17.34;63.21
55418;BME280;41287;47.554;7.844;2023-11-18T10:43:27;98860.47;;;17.35;63.36
55418;BME280;41287;47.554;7.844;2023-11-18T10:46:12;98857.59;;;17.31;63.25
55418;BME280;41287;47.554;7.844;2023-11-18T10:48:48;98861.09;;;17.32;63.33
55418;BME280;41287;47.554;7.844;2023-11-18T10:51:17;98855.38;;;17.33;63.25
55418;BME280;41287;47.554;7.844;2023-11-18T10:53:46;98853.47;;;17.34;63.35
55418;BME280;41287;47.554;7.844;2023-11-18T10:56:24;98868.91;;;17.33;63.31
55418;BME280;41287;47.554;7.844;2023-11-18T10:59:13;98864.13;;;17.30;63.45
55418;BME280;41287;47.554;7.844;2023-11-18T11:01:43;98868.91;;;17.33;63.29
55418;BME280;41287;47.554;7.844;2023-11-18T11:04:10;98868.13;;;17.33;63.28
55418;BME280;41287;47.554;7.844;2023-11-18T11:06:40;98870.03;;;17.32;63.42
55418;BME280;41287;47.554;7.844;2023-11-18T11:09:07;98860.78;;;17.33;63.42
55418;BME280;41287;47.554;7.844;2023-11-18T11:11:48;98858.41;;;17.32;63.42
55418;BME280;41287;47.554;7.844;2023-11-18T11:14:15;98861.91;;;17.32;63.20
55418;BME280;41287;47.554;7.844;2023-11-18T11:16:47;98862.72;;;17.33;63.39
55418;BME280;41287;47.554;7.844;2023-11-18T11:19:26;98854.09;;;17.31;63.32
55418;BME280;41287;47.554;7.844;2023-11-18T11:22:07;98860.59;;;17.30;63.22
55418;BME280;41287;47.554;7.844;2023-11-18T11:25:02;98866.81;;;17.30;63.42
55418;BME280;41287;47.554;7.844;2023-11-18T11:27:42;98869.25;;;17.32;63.41
55418;BME280;41287;47.554;7.844;2023-11-18T11:30:23;98863.81;;;17.32;63.25
55418;BME280;41287;47.554;7.844;2023-11-18T11:33:32;98861.41;;;17.30;63.24
55418;BME280;41287;47.554;7.844;2023-11-18T11:35:55;98856.78;;;17.31;63.30
55418;BME280;41287;47.554;7.844;2023-11-18T11:38:23;98852.19;;;17.31;63.30
55418;BME280;41287;47.554;7.844;2023-11-18T11:40:49;98847.56;;;17.32;63.39
55418;BME280;41287;47.554;7.844;2023-11-18T11:43:18;98846.75;;;17.31;63.33
55418;BME280;41287;47.554;7.844;2023-11-18T11:45:48;98845.66;;;17.32;63.31
55418;BME280;41287;47.554;7.844;2023-11-18T11:48:17;98846.75;;;17.31;63.28
55418;BME280;41287;47.554;7.844;2023-11-18T11:53:33;98840.53;;;17.31;63.38
55418;BME280;41287;47.554;7.844;2023-11-18T11:56:02;98837.53;;;17.32;63.39
55418;BME280;41287;47.554;7.844;2023-11-18T11:58:33;98830.50;;;17.31;63.37
55418;BME280;41287;47.554;7.844;2023-11-18T12:03:48;98818.88;;;17.31;63.49
55418;BME280;41287;47.554;7.844;2023-11-18T12:06:24;98827.31;;;17.29;63.20
55418;BME280;41287;47.554;7.844;2023-11-18T12:08:52;98827.81;;;17.31;63.29
55418;BME280;41287;47.554;7.844;2023-11-18T12:11:18;98812.66;;;17.30;63.25
55418;BME280;41287;47.554;7.844;2023-11-18T12:14:06;98804.03;;;17.28;63.40
55418;BME280;41287;47.554;7.844;2023-11-18T12:17:05;98804.81;;;17.29;63.58
55418;BME280;41287;47.554;7.844;2023-11-18T12:19:37;98802.63;;;17.31;63.26
55418;BME280;41287;47.554;7.844;2023-11-18T12:22:18;98803.72;;;17.30;63.15
55418;BME280;41287;47.554;7.844;2023-11-18T12:32:59;98809.94;;;17.30;63.17
55418;BME280;41287;47.554;7.844;2023-11-18T12:39:11;98785.88;;;17.29;63.47
55418;BME280;41287;47.554;7.844;2023-11-18T12:41:42;98782.06;;;17.30;63.26
55418;BME280;41287;47.554;7.844;2023-11-18T12:47:03;98770.41;;;17.29;63.35
55418;BME280;41287;47.554;7.844;2023-11-18T12:49:43;98756.88;;;17.29;63.24
55418;BME280;41287;47.554;7.844;2023-11-18T12:52:10;98750.66;;;17.29;63.19
55418;BME280;41287;47.554;7.844;2023-11-18T12:54:39;98745.25;;;17.29;63.29
55418;BME280;41287;47.554;7.844;2023-11-18T12:57:09;98742.53;;;17.29;63.42
55418;BME280;41287;47.554;7.844;2023-11-18T12:59:35;98737.91;;;17.29;63.22
55418;BME280;41287;47.554;7.844;2023-11-18T13:02:01;98739.81;;;17.29;63.25
55418;BME280;41287;47.554;7.844;2023-11-18T13:04:30;98729.00;;;17.29;63.29
55418;BME280;41287;47.554;7.844;2023-11-18T13:06:56;98721.66;;;17.29;63.38
55418;BME280;41287;47.554;7.844;2023-11-18T13:09:23;98717.03;;;17.30;63.43
55418;BME280;41287;47.554;7.844;2023-11-18T13:11:59;98723.56;;;17.29;63.16
55418;BME280;41287;47.554;7.844;2023-11-18T13:14:30;98720.88;;;17.29;63.13
55418;BME280;41287;47.554;7.844;2023-11-18T13:17:02;98725.19;;;17.30;63.31
55418;BME280;41287;47.554;7.844;2023-11-18T13:19:32;98714.34;;;17.30;63.12
55418;BME280;41287;47.554;7.844;2023-11-18T13:22:04;98717.34;;;17.28;63.27
55418;BME280;41287;47.554;7.844;2023-11-18T13:24:36;98716.53;;;17.28;63.06
55418;BME280;41287;47.554;7.844;2023-11-18T13:27:02;98705.41;;;17.29;63.28
55418;BME280;41287;47.554;7.844;2023-11-18T13:29:29;98701.91;;;17.29;63.32
55418;BME280;41287;47.554;7.844;2023-11-18T13:31:55;98691.88;;;17.29;63.30
55418;BME280;41287;47.554;7.844;2023-11-18T13:34:21;98703.81;;;17.28;63.26
55418;BME280;41287;47.554;7.844;2023-11-18T13:36:47;98718.16;;;17.29;63.25